<?xml version="1.0" encoding="UTF-8" standalone="no" ?>
<gpx xmlns="http://www.topografix.com/GPX/1/1" xmlns:xsi="http://www.w3.org/2001/XMLSchema-instance" xsi:schemaLocation="http://www.topografix.com/GPX/1/1 http://www.topografix.com/GPX/1/1/gpx.xsd" version="1.1" creator="VisuGPX - https://www.visugpx.com">
  <metadata>
    <name>10823097-mervent noel</name>
  </metadata>
  <trk>
    <name><![CDATA[10823097-mervent noel]]></name>
    <trkseg>
      <trkpt lat="46.52303" lon="-0.75671">
        <ele>87</ele>
        <time>2021-05-20T16:29:02Z</time>
      </trkpt>
      <trkpt lat="46.52305" lon="-0.75679">
        <ele>87</ele>
        <time>2021-05-20T16:29:05Z</time>
      </trkpt>
      <trkpt lat="46.52308" lon="-0.7563">
        <ele>86</ele>
        <time>2021-05-20T16:29:22Z</time>
      </trkpt>
      <trkpt lat="46.52341" lon="-0.75616">
        <ele>84</ele>
        <time>2021-05-20T16:29:39Z</time>
      </trkpt>
      <trkpt lat="46.52363" lon="-0.75597">
        <ele>78</ele>
        <time>2021-05-20T16:29:52Z</time>
      </trkpt>
      <trkpt lat="46.52379" lon="-0.75576">
        <ele>73</ele>
        <time>2021-05-20T16:30:03Z</time>
      </trkpt>
      <trkpt lat="46.52391" lon="-0.75598">
        <ele>74</ele>
        <time>2021-05-20T16:30:12Z</time>
      </trkpt>
      <trkpt lat="46.52404" lon="-0.75605">
        <ele>73</ele>
        <time>2021-05-20T16:30:19Z</time>
      </trkpt>
      <trkpt lat="46.52416" lon="-0.75639">
        <ele>77</ele>
        <time>2021-05-20T16:30:32Z</time>
      </trkpt>
      <trkpt lat="46.52393" lon="-0.75669">
        <ele>85</ele>
        <time>2021-05-20T16:30:48Z</time>
      </trkpt>
      <trkpt lat="46.52401" lon="-0.75679">
        <ele>85</ele>
        <time>2021-05-20T16:30:53Z</time>
      </trkpt>
      <trkpt lat="46.5242" lon="-0.75713">
        <ele>86</ele>
        <time>2021-05-20T16:31:08Z</time>
      </trkpt>
      <trkpt lat="46.52425" lon="-0.75737">
        <ele>87</ele>
        <time>2021-05-20T16:31:17Z</time>
      </trkpt>
      <trkpt lat="46.52438" lon="-0.75762">
        <ele>86</ele>
        <time>2021-05-20T16:31:28Z</time>
      </trkpt>
      <trkpt lat="46.52469" lon="-0.75757">
        <ele>78</ele>
        <time>2021-05-20T16:31:43Z</time>
      </trkpt>
      <trkpt lat="46.52469" lon="-0.75796">
        <ele>83</ele>
        <time>2021-05-20T16:31:57Z</time>
      </trkpt>
      <trkpt lat="46.52477" lon="-0.75824">
        <ele>86</ele>
        <time>2021-05-20T16:32:07Z</time>
      </trkpt>
      <trkpt lat="46.52478" lon="-0.75846">
        <ele>88</ele>
        <time>2021-05-20T16:32:15Z</time>
      </trkpt>
      <trkpt lat="46.52494" lon="-0.75848">
        <ele>87</ele>
        <time>2021-05-20T16:32:23Z</time>
      </trkpt>
      <trkpt lat="46.52535" lon="-0.75834">
        <ele>83</ele>
        <time>2021-05-20T16:32:44Z</time>
      </trkpt>
      <trkpt lat="46.52524" lon="-0.75818">
        <ele>80</ele>
        <time>2021-05-20T16:32:52Z</time>
      </trkpt>
      <trkpt lat="46.52563" lon="-0.758">
        <ele>73</ele>
        <time>2021-05-20T16:33:12Z</time>
      </trkpt>
      <trkpt lat="46.52529" lon="-0.75773">
        <ele>70</ele>
        <time>2021-05-20T16:33:32Z</time>
      </trkpt>
      <trkpt lat="46.52546" lon="-0.75755">
        <ele>65</ele>
        <time>2021-05-20T16:33:42Z</time>
      </trkpt>
      <trkpt lat="46.52557" lon="-0.75755">
        <ele>63</ele>
        <time>2021-05-20T16:33:48Z</time>
      </trkpt>
      <trkpt lat="46.52568" lon="-0.75751">
        <ele>61</ele>
        <time>2021-05-20T16:33:53Z</time>
      </trkpt>
      <trkpt lat="46.52597" lon="-0.75729">
        <ele>56</ele>
        <time>2021-05-20T16:34:10Z</time>
      </trkpt>
      <trkpt lat="46.52615" lon="-0.75711">
        <ele>54</ele>
        <time>2021-05-20T16:34:21Z</time>
      </trkpt>
      <trkpt lat="46.526" lon="-0.75688">
        <ele>49</ele>
        <time>2021-05-20T16:34:31Z</time>
      </trkpt>
      <trkpt lat="46.52613" lon="-0.75672">
        <ele>48</ele>
        <time>2021-05-20T16:34:40Z</time>
      </trkpt>
      <trkpt lat="46.5262" lon="-0.75671">
        <ele>48</ele>
        <time>2021-05-20T16:34:43Z</time>
      </trkpt>
      <trkpt lat="46.52641" lon="-0.75676">
        <ele>50</ele>
        <time>2021-05-20T16:34:54Z</time>
      </trkpt>
      <trkpt lat="46.52644" lon="-0.75664">
        <ele>48</ele>
        <time>2021-05-20T16:34:59Z</time>
      </trkpt>
      <trkpt lat="46.52637" lon="-0.75629">
        <ele>46</ele>
        <time>2021-05-20T16:35:11Z</time>
      </trkpt>
      <trkpt lat="46.52651" lon="-0.75592">
        <ele>44</ele>
        <time>2021-05-20T16:35:26Z</time>
      </trkpt>
      <trkpt lat="46.52672" lon="-0.75565">
        <ele>44</ele>
        <time>2021-05-20T16:35:40Z</time>
      </trkpt>
      <trkpt lat="46.52673" lon="-0.75556">
        <ele>44</ele>
        <time>2021-05-20T16:35:43Z</time>
      </trkpt>
      <trkpt lat="46.52685" lon="-0.75544">
        <ele>45</ele>
        <time>2021-05-20T16:35:50Z</time>
      </trkpt>
      <trkpt lat="46.52726" lon="-0.75481">
        <ele>47</ele>
        <time>2021-05-20T16:36:20Z</time>
      </trkpt>
      <trkpt lat="46.52756" lon="-0.75449">
        <ele>48</ele>
        <time>2021-05-20T16:36:39Z</time>
      </trkpt>
      <trkpt lat="46.52797" lon="-0.75423">
        <ele>45</ele>
        <time>2021-05-20T16:37:01Z</time>
      </trkpt>
      <trkpt lat="46.52805" lon="-0.75426">
        <ele>45</ele>
        <time>2021-05-20T16:37:05Z</time>
      </trkpt>
      <trkpt lat="46.5282" lon="-0.75419">
        <ele>44</ele>
        <time>2021-05-20T16:37:13Z</time>
      </trkpt>
      <trkpt lat="46.52836" lon="-0.75415">
        <ele>43</ele>
        <time>2021-05-20T16:37:21Z</time>
      </trkpt>
      <trkpt lat="46.52857" lon="-0.75425">
        <ele>43</ele>
        <time>2021-05-20T16:37:32Z</time>
      </trkpt>
      <trkpt lat="46.52864" lon="-0.75419">
        <ele>43</ele>
        <time>2021-05-20T16:37:36Z</time>
      </trkpt>
      <trkpt lat="46.52868" lon="-0.75436">
        <ele>43</ele>
        <time>2021-05-20T16:37:42Z</time>
      </trkpt>
      <trkpt lat="46.52834" lon="-0.75587">
        <ele>48</ele>
        <time>2021-05-20T16:38:37Z</time>
      </trkpt>
      <trkpt lat="46.52825" lon="-0.75635">
        <ele>47</ele>
        <time>2021-05-20T16:38:54Z</time>
      </trkpt>
      <trkpt lat="46.52826" lon="-0.75649">
        <ele>46</ele>
        <time>2021-05-20T16:38:59Z</time>
      </trkpt>
      <trkpt lat="46.52811" lon="-0.75662">
        <ele>48</ele>
        <time>2021-05-20T16:39:08Z</time>
      </trkpt>
      <trkpt lat="46.52773" lon="-0.75712">
        <ele>53</ele>
        <time>2021-05-20T16:39:33Z</time>
      </trkpt>
      <trkpt lat="46.527" lon="-0.75775">
        <ele>62</ele>
        <time>2021-05-20T16:40:16Z</time>
      </trkpt>
      <trkpt lat="46.52662" lon="-0.75795">
        <ele>68</ele>
        <time>2021-05-20T16:40:36Z</time>
      </trkpt>
      <trkpt lat="46.5262" lon="-0.7581">
        <ele>72</ele>
        <time>2021-05-20T16:40:58Z</time>
      </trkpt>
      <trkpt lat="46.52574" lon="-0.75821">
        <ele>78</ele>
        <time>2021-05-20T16:41:21Z</time>
      </trkpt>
      <trkpt lat="46.52523" lon="-0.75841">
        <ele>84</ele>
        <time>2021-05-20T16:41:48Z</time>
      </trkpt>
      <trkpt lat="46.52478" lon="-0.75851">
        <ele>88</ele>
        <time>2021-05-20T16:42:10Z</time>
      </trkpt>
      <trkpt lat="46.52415" lon="-0.75846">
        <ele>93</ele>
        <time>2021-05-20T16:42:42Z</time>
      </trkpt>
      <trkpt lat="46.52355" lon="-0.75846">
        <ele>91</ele>
        <time>2021-05-20T16:43:12Z</time>
      </trkpt>
      <trkpt lat="46.52335" lon="-0.7585">
        <ele>91</ele>
        <time>2021-05-20T16:43:22Z</time>
      </trkpt>
      <trkpt lat="46.52326" lon="-0.75891">
        <ele>88</ele>
        <time>2021-05-20T16:43:37Z</time>
      </trkpt>
      <trkpt lat="46.52312" lon="-0.75977">
        <ele>82</ele>
        <time>2021-05-20T16:44:07Z</time>
      </trkpt>
      <trkpt lat="46.52301" lon="-0.76006">
        <ele>78</ele>
        <time>2021-05-20T16:44:19Z</time>
      </trkpt>
      <trkpt lat="46.52297" lon="-0.76068">
        <ele>76</ele>
        <time>2021-05-20T16:44:40Z</time>
      </trkpt>
      <trkpt lat="46.52287" lon="-0.7612">
        <ele>75</ele>
        <time>2021-05-20T16:44:59Z</time>
      </trkpt>
      <trkpt lat="46.52266" lon="-0.76191">
        <ele>74</ele>
        <time>2021-05-20T16:45:25Z</time>
      </trkpt>
      <trkpt lat="46.52247" lon="-0.7623">
        <ele>73</ele>
        <time>2021-05-20T16:45:42Z</time>
      </trkpt>
      <trkpt lat="46.52235" lon="-0.7629">
        <ele>74</ele>
        <time>2021-05-20T16:46:03Z</time>
      </trkpt>
      <trkpt lat="46.5223" lon="-0.76376">
        <ele>74</ele>
        <time>2021-05-20T16:46:33Z</time>
      </trkpt>
      <trkpt lat="46.52222" lon="-0.76447">
        <ele>73</ele>
        <time>2021-05-20T16:46:58Z</time>
      </trkpt>
      <trkpt lat="46.52179" lon="-0.76577">
        <ele>70</ele>
        <time>2021-05-20T16:47:47Z</time>
      </trkpt>
      <trkpt lat="46.52153" lon="-0.7678">
        <ele>70</ele>
        <time>2021-05-20T16:48:59Z</time>
      </trkpt>
      <trkpt lat="46.52125" lon="-0.77066">
        <ele>77</ele>
        <time>2021-05-20T16:50:38Z</time>
      </trkpt>
      <trkpt lat="46.52119" lon="-0.77158">
        <ele>78</ele>
        <time>2021-05-20T16:51:10Z</time>
      </trkpt>
      <trkpt lat="46.52117" lon="-0.77328">
        <ele>77</ele>
        <time>2021-05-20T16:52:08Z</time>
      </trkpt>
      <trkpt lat="46.52119" lon="-0.77383">
        <ele>79</ele>
        <time>2021-05-20T16:52:27Z</time>
      </trkpt>
      <trkpt lat="46.52093" lon="-0.77395">
        <ele>79</ele>
        <time>2021-05-20T16:52:41Z</time>
      </trkpt>
      <trkpt lat="46.52068" lon="-0.77429">
        <ele>80</ele>
        <time>2021-05-20T16:52:58Z</time>
      </trkpt>
      <trkpt lat="46.51974" lon="-0.77385">
        <ele>74</ele>
        <time>2021-05-20T16:53:48Z</time>
      </trkpt>
      <trkpt lat="46.51941" lon="-0.77378">
        <ele>73</ele>
        <time>2021-05-20T16:54:04Z</time>
      </trkpt>
      <trkpt lat="46.51915" lon="-0.77386">
        <ele>74</ele>
        <time>2021-05-20T16:54:18Z</time>
      </trkpt>
      <trkpt lat="46.51872" lon="-0.77408">
        <ele>71</ele>
        <time>2021-05-20T16:54:40Z</time>
      </trkpt>
      <trkpt lat="46.51834" lon="-0.77443">
        <ele>70</ele>
        <time>2021-05-20T16:55:03Z</time>
      </trkpt>
      <trkpt lat="46.51808" lon="-0.77487">
        <ele>69</ele>
        <time>2021-05-20T16:55:23Z</time>
      </trkpt>
      <trkpt lat="46.51774" lon="-0.77525">
        <ele>62</ele>
        <time>2021-05-20T16:55:44Z</time>
      </trkpt>
      <trkpt lat="46.51744" lon="-0.77567">
        <ele>55</ele>
        <time>2021-05-20T16:56:05Z</time>
      </trkpt>
      <trkpt lat="46.51751" lon="-0.77651">
        <ele>49</ele>
        <time>2021-05-20T16:56:34Z</time>
      </trkpt>
      <trkpt lat="46.51792" lon="-0.77672">
        <ele>48</ele>
        <time>2021-05-20T16:56:56Z</time>
      </trkpt>
      <trkpt lat="46.51816" lon="-0.7767">
        <ele>49</ele>
        <time>2021-05-20T16:57:08Z</time>
      </trkpt>
      <trkpt lat="46.51887" lon="-0.77586">
        <ele>67</ele>
        <time>2021-05-20T16:57:54Z</time>
      </trkpt>
      <trkpt lat="46.51924" lon="-0.77549">
        <ele>72</ele>
        <time>2021-05-20T16:58:16Z</time>
      </trkpt>
      <trkpt lat="46.51958" lon="-0.7753">
        <ele>75</ele>
        <time>2021-05-20T16:58:35Z</time>
      </trkpt>
      <trkpt lat="46.51977" lon="-0.77537">
        <ele>76</ele>
        <time>2021-05-20T16:58:44Z</time>
      </trkpt>
      <trkpt lat="46.51951" lon="-0.77584">
        <ele>72</ele>
        <time>2021-05-20T16:59:05Z</time>
      </trkpt>
      <trkpt lat="46.51912" lon="-0.77687">
        <ele>64</ele>
        <time>2021-05-20T16:59:46Z</time>
      </trkpt>
      <trkpt lat="46.51916" lon="-0.77779">
        <ele>60</ele>
        <time>2021-05-20T17:00:17Z</time>
      </trkpt>
      <trkpt lat="46.51921" lon="-0.77836">
        <ele>57</ele>
        <time>2021-05-20T17:00:37Z</time>
      </trkpt>
      <trkpt lat="46.51912" lon="-0.7786">
        <ele>53</ele>
        <time>2021-05-20T17:00:47Z</time>
      </trkpt>
      <trkpt lat="46.51899" lon="-0.77875">
        <ele>50</ele>
        <time>2021-05-20T17:00:55Z</time>
      </trkpt>
      <trkpt lat="46.51943" lon="-0.78021">
        <ele>49</ele>
        <time>2021-05-20T17:01:50Z</time>
      </trkpt>
      <trkpt lat="46.51973" lon="-0.78043">
        <ele>54</ele>
        <time>2021-05-20T17:02:07Z</time>
      </trkpt>
      <trkpt lat="46.5199" lon="-0.7806">
        <ele>57</ele>
        <time>2021-05-20T17:02:17Z</time>
      </trkpt>
      <trkpt lat="46.51937" lon="-0.7808">
        <ele>49</ele>
        <time>2021-05-20T17:02:44Z</time>
      </trkpt>
      <trkpt lat="46.51912" lon="-0.7807">
        <ele>46</ele>
        <time>2021-05-20T17:02:57Z</time>
      </trkpt>
      <trkpt lat="46.51894" lon="-0.78069">
        <ele>45</ele>
        <time>2021-05-20T17:03:06Z</time>
      </trkpt>
      <trkpt lat="46.51891" lon="-0.78101">
        <ele>47</ele>
        <time>2021-05-20T17:03:17Z</time>
      </trkpt>
      <trkpt lat="46.51893" lon="-0.78133">
        <ele>51</ele>
        <time>2021-05-20T17:03:29Z</time>
      </trkpt>
      <trkpt lat="46.5188" lon="-0.78161">
        <ele>52</ele>
        <time>2021-05-20T17:03:40Z</time>
      </trkpt>
      <trkpt lat="46.5184" lon="-0.78212">
        <ele>45</ele>
        <time>2021-05-20T17:04:07Z</time>
      </trkpt>
      <trkpt lat="46.51847" lon="-0.78251">
        <ele>48</ele>
        <time>2021-05-20T17:04:21Z</time>
      </trkpt>
      <trkpt lat="46.51874" lon="-0.78289">
        <ele>53</ele>
        <time>2021-05-20T17:04:39Z</time>
      </trkpt>
      <trkpt lat="46.51885" lon="-0.78318">
        <ele>54</ele>
        <time>2021-05-20T17:04:51Z</time>
      </trkpt>
      <trkpt lat="46.51918" lon="-0.78379">
        <ele>54</ele>
        <time>2021-05-20T17:05:18Z</time>
      </trkpt>
      <trkpt lat="46.51905" lon="-0.78382">
        <ele>55</ele>
        <time>2021-05-20T17:05:24Z</time>
      </trkpt>
      <trkpt lat="46.51893" lon="-0.78389">
        <ele>57</ele>
        <time>2021-05-20T17:05:31Z</time>
      </trkpt>
      <trkpt lat="46.5188" lon="-0.78388">
        <ele>58</ele>
        <time>2021-05-20T17:05:37Z</time>
      </trkpt>
      <trkpt lat="46.51834" lon="-0.78402">
        <ele>67</ele>
        <time>2021-05-20T17:06:01Z</time>
      </trkpt>
      <trkpt lat="46.51823" lon="-0.78419">
        <ele>70</ele>
        <time>2021-05-20T17:06:09Z</time>
      </trkpt>
      <trkpt lat="46.518" lon="-0.78395">
        <ele>66</ele>
        <time>2021-05-20T17:06:23Z</time>
      </trkpt>
      <trkpt lat="46.51752" lon="-0.78404">
        <ele>68</ele>
        <time>2021-05-20T17:06:47Z</time>
      </trkpt>
      <trkpt lat="46.51683" lon="-0.78413">
        <ele>61</ele>
        <time>2021-05-20T17:07:22Z</time>
      </trkpt>
      <trkpt lat="46.51585" lon="-0.78407">
        <ele>49</ele>
        <time>2021-05-20T17:08:11Z</time>
      </trkpt>
      <trkpt lat="46.51499" lon="-0.78416">
        <ele>45</ele>
        <time>2021-05-20T17:08:54Z</time>
      </trkpt>
      <trkpt lat="46.51532" lon="-0.78616">
        <ele>74</ele>
        <time>2021-05-20T17:10:05Z</time>
      </trkpt>
      <trkpt lat="46.51628" lon="-0.79096">
        <ele>86</ele>
        <time>2021-05-20T17:12:57Z</time>
      </trkpt>
      <trkpt lat="46.51693" lon="-0.79071">
        <ele>93</ele>
        <time>2021-05-20T17:13:31Z</time>
      </trkpt>
      <trkpt lat="46.51633" lon="-0.78698">
        <ele>91</ele>
        <time>2021-05-20T17:15:43Z</time>
      </trkpt>
      <trkpt lat="46.51616" lon="-0.78571">
        <ele>82</ele>
        <time>2021-05-20T17:16:27Z</time>
      </trkpt>
      <trkpt lat="46.51829" lon="-0.78464">
        <ele>75</ele>
        <time>2021-05-20T17:18:20Z</time>
      </trkpt>
      <trkpt lat="46.51839" lon="-0.78501">
        <ele>78</ele>
        <time>2021-05-20T17:18:34Z</time>
      </trkpt>
      <trkpt lat="46.51854" lon="-0.78583">
        <ele>82</ele>
        <time>2021-05-20T17:19:03Z</time>
      </trkpt>
      <trkpt lat="46.51894" lon="-0.78747">
        <ele>88</ele>
        <time>2021-05-20T17:20:03Z</time>
      </trkpt>
      <trkpt lat="46.519" lon="-0.78838">
        <ele>93</ele>
        <time>2021-05-20T17:20:34Z</time>
      </trkpt>
      <trkpt lat="46.51948" lon="-0.78829">
        <ele>88</ele>
        <time>2021-05-20T17:20:58Z</time>
      </trkpt>
      <trkpt lat="46.52021" lon="-0.78798">
        <ele>81</ele>
        <time>2021-05-20T17:21:36Z</time>
      </trkpt>
      <trkpt lat="46.52075" lon="-0.7878">
        <ele>77</ele>
        <time>2021-05-20T17:22:04Z</time>
      </trkpt>
      <trkpt lat="46.52023" lon="-0.78728">
        <ele>75</ele>
        <time>2021-05-20T17:22:36Z</time>
      </trkpt>
      <trkpt lat="46.5199" lon="-0.78662">
        <ele>71</ele>
        <time>2021-05-20T17:23:04Z</time>
      </trkpt>
      <trkpt lat="46.51961" lon="-0.78574">
        <ele>69</ele>
        <time>2021-05-20T17:23:37Z</time>
      </trkpt>
      <trkpt lat="46.51946" lon="-0.7847">
        <ele>61</ele>
        <time>2021-05-20T17:24:14Z</time>
      </trkpt>
      <trkpt lat="46.51931" lon="-0.78395">
        <ele>55</ele>
        <time>2021-05-20T17:24:41Z</time>
      </trkpt>
      <trkpt lat="46.51956" lon="-0.78385">
        <ele>57</ele>
        <time>2021-05-20T17:24:54Z</time>
      </trkpt>
      <trkpt lat="46.51996" lon="-0.78401">
        <ele>59</ele>
        <time>2021-05-20T17:25:15Z</time>
      </trkpt>
      <trkpt lat="46.52023" lon="-0.78422">
        <ele>62</ele>
        <time>2021-05-20T17:25:30Z</time>
      </trkpt>
      <trkpt lat="46.52029" lon="-0.78473">
        <ele>65</ele>
        <time>2021-05-20T17:25:48Z</time>
      </trkpt>
      <trkpt lat="46.52052" lon="-0.78583">
        <ele>71</ele>
        <time>2021-05-20T17:26:27Z</time>
      </trkpt>
      <trkpt lat="46.52069" lon="-0.78689">
        <ele>72</ele>
        <time>2021-05-20T17:27:05Z</time>
      </trkpt>
      <trkpt lat="46.52088" lon="-0.78774">
        <ele>76</ele>
        <time>2021-05-20T17:27:36Z</time>
      </trkpt>
      <trkpt lat="46.5213" lon="-0.78819">
        <ele>80</ele>
        <time>2021-05-20T17:28:02Z</time>
      </trkpt>
      <trkpt lat="46.5218" lon="-0.78825">
        <ele>81</ele>
        <time>2021-05-20T17:28:27Z</time>
      </trkpt>
      <trkpt lat="46.52222" lon="-0.78804">
        <ele>83</ele>
        <time>2021-05-20T17:28:49Z</time>
      </trkpt>
      <trkpt lat="46.52247" lon="-0.78749">
        <ele>86</ele>
        <time>2021-05-20T17:29:12Z</time>
      </trkpt>
      <trkpt lat="46.52268" lon="-0.78723">
        <ele>88</ele>
        <time>2021-05-20T17:29:26Z</time>
      </trkpt>
      <trkpt lat="46.52375" lon="-0.78547">
        <ele>101</ele>
        <time>2021-05-20T17:30:46Z</time>
      </trkpt>
      <trkpt lat="46.52382" lon="-0.78484">
        <ele>102</ele>
        <time>2021-05-20T17:31:08Z</time>
      </trkpt>
      <trkpt lat="46.52522" lon="-0.78335">
        <ele>105</ele>
        <time>2021-05-20T17:32:35Z</time>
      </trkpt>
      <trkpt lat="46.5268" lon="-0.78106">
        <ele>108</ele>
        <time>2021-05-20T17:34:27Z</time>
      </trkpt>
      <trkpt lat="46.52751" lon="-0.78055">
        <ele>109</ele>
        <time>2021-05-20T17:35:07Z</time>
      </trkpt>
      <trkpt lat="46.52744" lon="-0.77968">
        <ele>106</ele>
        <time>2021-05-20T17:35:37Z</time>
      </trkpt>
      <trkpt lat="46.52382" lon="-0.7806">
        <ele>93</ele>
        <time>2021-05-20T17:38:41Z</time>
      </trkpt>
      <trkpt lat="46.5224" lon="-0.7757">
        <ele>84</ele>
        <time>2021-05-20T17:41:44Z</time>
      </trkpt>
      <trkpt lat="46.52538" lon="-0.77499">
        <ele>91</ele>
        <time>2021-05-20T17:44:15Z</time>
      </trkpt>
      <trkpt lat="46.52471" lon="-0.77279">
        <ele>91</ele>
        <time>2021-05-20T17:45:38Z</time>
      </trkpt>
      <trkpt lat="46.52672" lon="-0.77227">
        <ele>91</ele>
        <time>2021-05-20T17:47:20Z</time>
      </trkpt>
      <trkpt lat="46.52719" lon="-0.77202">
        <ele>86</ele>
        <time>2021-05-20T17:47:45Z</time>
      </trkpt>
      <trkpt lat="46.5274" lon="-0.77172">
        <ele>82</ele>
        <time>2021-05-20T17:48:00Z</time>
      </trkpt>
      <trkpt lat="46.52751" lon="-0.77107">
        <ele>72</ele>
        <time>2021-05-20T17:48:23Z</time>
      </trkpt>
      <trkpt lat="46.52783" lon="-0.77113">
        <ele>72</ele>
        <time>2021-05-20T17:48:39Z</time>
      </trkpt>
      <trkpt lat="46.52848" lon="-0.77114">
        <ele>69</ele>
        <time>2021-05-20T17:49:11Z</time>
      </trkpt>
      <trkpt lat="46.52869" lon="-0.77175">
        <ele>75</ele>
        <time>2021-05-20T17:49:35Z</time>
      </trkpt>
      <trkpt lat="46.52872" lon="-0.77241">
        <ele>81</ele>
        <time>2021-05-20T17:49:58Z</time>
      </trkpt>
      <trkpt lat="46.52888" lon="-0.77274">
        <ele>80</ele>
        <time>2021-05-20T17:50:11Z</time>
      </trkpt>
      <trkpt lat="46.52899" lon="-0.77306">
        <ele>81</ele>
        <time>2021-05-20T17:50:24Z</time>
      </trkpt>
      <trkpt lat="46.52897" lon="-0.77465">
        <ele>87</ele>
        <time>2021-05-20T17:51:19Z</time>
      </trkpt>
      <trkpt lat="46.52915" lon="-0.7757">
        <ele>91</ele>
        <time>2021-05-20T17:51:56Z</time>
      </trkpt>
      <trkpt lat="46.52909" lon="-0.77611">
        <ele>93</ele>
        <time>2021-05-20T17:52:10Z</time>
      </trkpt>
      <trkpt lat="46.52933" lon="-0.77678">
        <ele>94</ele>
        <time>2021-05-20T17:52:36Z</time>
      </trkpt>
      <trkpt lat="46.52951" lon="-0.77651">
        <ele>93</ele>
        <time>2021-05-20T17:52:49Z</time>
      </trkpt>
      <trkpt lat="46.52987" lon="-0.77558">
        <ele>88</ele>
        <time>2021-05-20T17:53:26Z</time>
      </trkpt>
      <trkpt lat="46.53005" lon="-0.77523">
        <ele>84</ele>
        <time>2021-05-20T17:53:41Z</time>
      </trkpt>
      <trkpt lat="46.53025" lon="-0.77474">
        <ele>80</ele>
        <time>2021-05-20T17:54:01Z</time>
      </trkpt>
      <trkpt lat="46.53046" lon="-0.77429">
        <ele>76</ele>
        <time>2021-05-20T17:54:19Z</time>
      </trkpt>
      <trkpt lat="46.53082" lon="-0.77363">
        <ele>67</ele>
        <time>2021-05-20T17:54:48Z</time>
      </trkpt>
      <trkpt lat="46.53137" lon="-0.77387">
        <ele>70</ele>
        <time>2021-05-20T17:55:17Z</time>
      </trkpt>
      <trkpt lat="46.53165" lon="-0.77362">
        <ele>66</ele>
        <time>2021-05-20T17:55:33Z</time>
      </trkpt>
      <trkpt lat="46.53189" lon="-0.77332">
        <ele>59</ele>
        <time>2021-05-20T17:55:49Z</time>
      </trkpt>
      <trkpt lat="46.53209" lon="-0.77348">
        <ele>58</ele>
        <time>2021-05-20T17:56:01Z</time>
      </trkpt>
      <trkpt lat="46.5323" lon="-0.77355">
        <ele>56</ele>
        <time>2021-05-20T17:56:12Z</time>
      </trkpt>
      <trkpt lat="46.53238" lon="-0.77378">
        <ele>58</ele>
        <time>2021-05-20T17:56:20Z</time>
      </trkpt>
      <trkpt lat="46.53177" lon="-0.77444">
        <ele>73</ele>
        <time>2021-05-20T17:56:58Z</time>
      </trkpt>
      <trkpt lat="46.53144" lon="-0.775">
        <ele>79</ele>
        <time>2021-05-20T17:57:24Z</time>
      </trkpt>
      <trkpt lat="46.5306" lon="-0.77618">
        <ele>90</ele>
        <time>2021-05-20T17:58:22Z</time>
      </trkpt>
      <trkpt lat="46.5301" lon="-0.77679">
        <ele>94</ele>
        <time>2021-05-20T17:58:55Z</time>
      </trkpt>
      <trkpt lat="46.52982" lon="-0.77709">
        <ele>95</ele>
        <time>2021-05-20T17:59:12Z</time>
      </trkpt>
      <trkpt lat="46.52996" lon="-0.77717">
        <ele>95</ele>
        <time>2021-05-20T17:59:20Z</time>
      </trkpt>
      <trkpt lat="46.53023" lon="-0.77676">
        <ele>93</ele>
        <time>2021-05-20T17:59:39Z</time>
      </trkpt>
      <trkpt lat="46.53045" lon="-0.77658">
        <ele>92</ele>
        <time>2021-05-20T17:59:52Z</time>
      </trkpt>
      <trkpt lat="46.53057" lon="-0.77666">
        <ele>91</ele>
        <time>2021-05-20T17:59:59Z</time>
      </trkpt>
      <trkpt lat="46.5309" lon="-0.77634">
        <ele>89</ele>
        <time>2021-05-20T18:00:19Z</time>
      </trkpt>
      <trkpt lat="46.53103" lon="-0.77641">
        <ele>86</ele>
        <time>2021-05-20T18:00:25Z</time>
      </trkpt>
      <trkpt lat="46.53147" lon="-0.77616">
        <ele>78</ele>
        <time>2021-05-20T18:00:49Z</time>
      </trkpt>
      <trkpt lat="46.53182" lon="-0.77603">
        <ele>72</ele>
        <time>2021-05-20T18:01:07Z</time>
      </trkpt>
      <trkpt lat="46.53216" lon="-0.77617">
        <ele>68</ele>
        <time>2021-05-20T18:01:25Z</time>
      </trkpt>
      <trkpt lat="46.53244" lon="-0.77532">
        <ele>62</ele>
        <time>2021-05-20T18:01:57Z</time>
      </trkpt>
      <trkpt lat="46.53264" lon="-0.77534">
        <ele>62</ele>
        <time>2021-05-20T18:02:07Z</time>
      </trkpt>
      <trkpt lat="46.5328" lon="-0.77514">
        <ele>62</ele>
        <time>2021-05-20T18:02:18Z</time>
      </trkpt>
      <trkpt lat="46.53298" lon="-0.77486">
        <ele>61</ele>
        <time>2021-05-20T18:02:31Z</time>
      </trkpt>
      <trkpt lat="46.53317" lon="-0.77436">
        <ele>55</ele>
        <time>2021-05-20T18:02:51Z</time>
      </trkpt>
      <trkpt lat="46.5334" lon="-0.77408">
        <ele>50</ele>
        <time>2021-05-20T18:03:06Z</time>
      </trkpt>
      <trkpt lat="46.53343" lon="-0.7748">
        <ele>60</ele>
        <time>2021-05-20T18:03:31Z</time>
      </trkpt>
      <trkpt lat="46.53355" lon="-0.77558">
        <ele>70</ele>
        <time>2021-05-20T18:03:58Z</time>
      </trkpt>
      <trkpt lat="46.53368" lon="-0.77609">
        <ele>77</ele>
        <time>2021-05-20T18:04:17Z</time>
      </trkpt>
      <trkpt lat="46.53348" lon="-0.77652">
        <ele>85</ele>
        <time>2021-05-20T18:04:35Z</time>
      </trkpt>
      <trkpt lat="46.53414" lon="-0.77738">
        <ele>95</ele>
        <time>2021-05-20T18:05:19Z</time>
      </trkpt>
      <trkpt lat="46.53451" lon="-0.78015">
        <ele>101</ele>
        <time>2021-05-20T18:06:56Z</time>
      </trkpt>
      <trkpt lat="46.53399" lon="-0.78193">
        <ele>97</ele>
        <time>2021-05-20T18:08:03Z</time>
      </trkpt>
      <trkpt lat="46.53355" lon="-0.78315">
        <ele>94</ele>
        <time>2021-05-20T18:08:50Z</time>
      </trkpt>
      <trkpt lat="46.53323" lon="-0.78337">
        <ele>93</ele>
        <time>2021-05-20T18:09:08Z</time>
      </trkpt>
      <trkpt lat="46.53356" lon="-0.78363">
        <ele>95</ele>
        <time>2021-05-20T18:09:27Z</time>
      </trkpt>
      <trkpt lat="46.53362" lon="-0.78376">
        <ele>95</ele>
        <time>2021-05-20T18:09:32Z</time>
      </trkpt>
      <trkpt lat="46.53382" lon="-0.78373">
        <ele>96</ele>
        <time>2021-05-20T18:09:42Z</time>
      </trkpt>
      <trkpt lat="46.53399" lon="-0.78402">
        <ele>98</ele>
        <time>2021-05-20T18:09:55Z</time>
      </trkpt>
      <trkpt lat="46.53401" lon="-0.78415">
        <ele>98</ele>
        <time>2021-05-20T18:10:00Z</time>
      </trkpt>
      <trkpt lat="46.53425" lon="-0.78425">
        <ele>99</ele>
        <time>2021-05-20T18:10:12Z</time>
      </trkpt>
      <trkpt lat="46.53444" lon="-0.78416">
        <ele>100</ele>
        <time>2021-05-20T18:10:22Z</time>
      </trkpt>
      <trkpt lat="46.53459" lon="-0.78424">
        <ele>100</ele>
        <time>2021-05-20T18:10:30Z</time>
      </trkpt>
      <trkpt lat="46.53495" lon="-0.78416">
        <ele>101</ele>
        <time>2021-05-20T18:10:49Z</time>
      </trkpt>
      <trkpt lat="46.53518" lon="-0.78427">
        <ele>101</ele>
        <time>2021-05-20T18:11:01Z</time>
      </trkpt>
      <trkpt lat="46.53592" lon="-0.78404">
        <ele>102</ele>
        <time>2021-05-20T18:11:39Z</time>
      </trkpt>
      <trkpt lat="46.53576" lon="-0.78329">
        <ele>105</ele>
        <time>2021-05-20T18:12:06Z</time>
      </trkpt>
      <trkpt lat="46.53573" lon="-0.78251">
        <ele>103</ele>
        <time>2021-05-20T18:12:32Z</time>
      </trkpt>
      <trkpt lat="46.53558" lon="-0.78199">
        <ele>99</ele>
        <time>2021-05-20T18:12:52Z</time>
      </trkpt>
      <trkpt lat="46.53555" lon="-0.78155">
        <ele>96</ele>
        <time>2021-05-20T18:13:07Z</time>
      </trkpt>
      <trkpt lat="46.53566" lon="-0.78108">
        <ele>94</ele>
        <time>2021-05-20T18:13:24Z</time>
      </trkpt>
      <trkpt lat="46.53559" lon="-0.78069">
        <ele>94</ele>
        <time>2021-05-20T18:13:38Z</time>
      </trkpt>
      <trkpt lat="46.5356" lon="-0.78016">
        <ele>93</ele>
        <time>2021-05-20T18:13:56Z</time>
      </trkpt>
      <trkpt lat="46.53566" lon="-0.77962">
        <ele>90</ele>
        <time>2021-05-20T18:14:15Z</time>
      </trkpt>
      <trkpt lat="46.53583" lon="-0.77906">
        <ele>85</ele>
        <time>2021-05-20T18:14:36Z</time>
      </trkpt>
      <trkpt lat="46.53593" lon="-0.77877">
        <ele>82</ele>
        <time>2021-05-20T18:14:47Z</time>
      </trkpt>
      <trkpt lat="46.53647" lon="-0.77817">
        <ele>72</ele>
        <time>2021-05-20T18:15:21Z</time>
      </trkpt>
      <trkpt lat="46.53724" lon="-0.7783">
        <ele>77</ele>
        <time>2021-05-20T18:16:00Z</time>
      </trkpt>
      <trkpt lat="46.53768" lon="-0.77825">
        <ele>76</ele>
        <time>2021-05-20T18:16:22Z</time>
      </trkpt>
      <trkpt lat="46.53771" lon="-0.77918">
        <ele>90</ele>
        <time>2021-05-20T18:16:54Z</time>
      </trkpt>
      <trkpt lat="46.53718" lon="-0.78119">
        <ele>99</ele>
        <time>2021-05-20T18:18:08Z</time>
      </trkpt>
      <trkpt lat="46.5368" lon="-0.78283">
        <ele>102</ele>
        <time>2021-05-20T18:19:08Z</time>
      </trkpt>
      <trkpt lat="46.53755" lon="-0.78259">
        <ele>102</ele>
        <time>2021-05-20T18:19:46Z</time>
      </trkpt>
      <trkpt lat="46.53725" lon="-0.78354">
        <ele>101</ele>
        <time>2021-05-20T18:20:22Z</time>
      </trkpt>
      <trkpt lat="46.53741" lon="-0.78434">
        <ele>100</ele>
        <time>2021-05-20T18:20:51Z</time>
      </trkpt>
      <trkpt lat="46.53794" lon="-0.78468">
        <ele>101</ele>
        <time>2021-05-20T18:21:20Z</time>
      </trkpt>
      <trkpt lat="46.53836" lon="-0.7853">
        <ele>102</ele>
        <time>2021-05-20T18:21:50Z</time>
      </trkpt>
      <trkpt lat="46.53879" lon="-0.78533">
        <ele>101</ele>
        <time>2021-05-20T18:22:12Z</time>
      </trkpt>
      <trkpt lat="46.53948" lon="-0.7851">
        <ele>98</ele>
        <time>2021-05-20T18:22:47Z</time>
      </trkpt>
      <trkpt lat="46.54017" lon="-0.7847">
        <ele>98</ele>
        <time>2021-05-20T18:23:24Z</time>
      </trkpt>
      <trkpt lat="46.54043" lon="-0.78448">
        <ele>99</ele>
        <time>2021-05-20T18:23:39Z</time>
      </trkpt>
      <trkpt lat="46.54074" lon="-0.78391">
        <ele>101</ele>
        <time>2021-05-20T18:24:04Z</time>
      </trkpt>
      <trkpt lat="46.54092" lon="-0.78382">
        <ele>102</ele>
        <time>2021-05-20T18:24:14Z</time>
      </trkpt>
      <trkpt lat="46.5411" lon="-0.78394">
        <ele>102</ele>
        <time>2021-05-20T18:24:24Z</time>
      </trkpt>
      <trkpt lat="46.5416" lon="-0.78671">
        <ele>107</ele>
        <time>2021-05-20T18:26:02Z</time>
      </trkpt>
      <trkpt lat="46.54163" lon="-0.78703">
        <ele>106</ele>
        <time>2021-05-20T18:26:13Z</time>
      </trkpt>
      <trkpt lat="46.54249" lon="-0.78676">
        <ele>104</ele>
        <time>2021-05-20T18:26:57Z</time>
      </trkpt>
      <trkpt lat="46.54345" lon="-0.78616">
        <ele>103</ele>
        <time>2021-05-20T18:27:50Z</time>
      </trkpt>
      <trkpt lat="46.54377" lon="-0.78606">
        <ele>102</ele>
        <time>2021-05-20T18:28:06Z</time>
      </trkpt>
      <trkpt lat="46.54419" lon="-0.78613">
        <ele>97</ele>
        <time>2021-05-20T18:28:27Z</time>
      </trkpt>
      <trkpt lat="46.54456" lon="-0.78594">
        <ele>91</ele>
        <time>2021-05-20T18:28:47Z</time>
      </trkpt>
      <trkpt lat="46.54483" lon="-0.78552">
        <ele>87</ele>
        <time>2021-05-20T18:29:07Z</time>
      </trkpt>
      <trkpt lat="46.54493" lon="-0.78499">
        <ele>88</ele>
        <time>2021-05-20T18:29:26Z</time>
      </trkpt>
      <trkpt lat="46.54482" lon="-0.78463">
        <ele>85</ele>
        <time>2021-05-20T18:29:39Z</time>
      </trkpt>
      <trkpt lat="46.54459" lon="-0.78443">
        <ele>85</ele>
        <time>2021-05-20T18:29:53Z</time>
      </trkpt>
      <trkpt lat="46.54422" lon="-0.78431">
        <ele>87</ele>
        <time>2021-05-20T18:30:12Z</time>
      </trkpt>
      <trkpt lat="46.54334" lon="-0.78409">
        <ele>95</ele>
        <time>2021-05-20T18:30:56Z</time>
      </trkpt>
      <trkpt lat="46.54287" lon="-0.78368">
        <ele>88</ele>
        <time>2021-05-20T18:31:24Z</time>
      </trkpt>
      <trkpt lat="46.5428" lon="-0.78358">
        <ele>87</ele>
        <time>2021-05-20T18:31:29Z</time>
      </trkpt>
      <trkpt lat="46.54278" lon="-0.78335">
        <ele>82</ele>
        <time>2021-05-20T18:31:37Z</time>
      </trkpt>
      <trkpt lat="46.54269" lon="-0.78333">
        <ele>83</ele>
        <time>2021-05-20T18:31:41Z</time>
      </trkpt>
      <trkpt lat="46.54258" lon="-0.78275">
        <ele>81</ele>
        <time>2021-05-20T18:32:02Z</time>
      </trkpt>
      <trkpt lat="46.54275" lon="-0.78254">
        <ele>73</ele>
        <time>2021-05-20T18:32:13Z</time>
      </trkpt>
      <trkpt lat="46.54285" lon="-0.78215">
        <ele>68</ele>
        <time>2021-05-20T18:32:27Z</time>
      </trkpt>
      <trkpt lat="46.54285" lon="-0.78177">
        <ele>65</ele>
        <time>2021-05-20T18:32:40Z</time>
      </trkpt>
      <trkpt lat="46.54281" lon="-0.78134">
        <ele>67</ele>
        <time>2021-05-20T18:32:55Z</time>
      </trkpt>
      <trkpt lat="46.54276" lon="-0.78118">
        <ele>69</ele>
        <time>2021-05-20T18:33:01Z</time>
      </trkpt>
      <trkpt lat="46.54281" lon="-0.78099">
        <ele>67</ele>
        <time>2021-05-20T18:33:08Z</time>
      </trkpt>
      <trkpt lat="46.54292" lon="-0.78099">
        <ele>62</ele>
        <time>2021-05-20T18:33:14Z</time>
      </trkpt>
      <trkpt lat="46.5428" lon="-0.78072">
        <ele>67</ele>
        <time>2021-05-20T18:33:25Z</time>
      </trkpt>
      <trkpt lat="46.54272" lon="-0.78077">
        <ele>71</ele>
        <time>2021-05-20T18:33:29Z</time>
      </trkpt>
      <trkpt lat="46.54264" lon="-0.78091">
        <ele>74</ele>
        <time>2021-05-20T18:33:36Z</time>
      </trkpt>
      <trkpt lat="46.54263" lon="-0.78113">
        <ele>74</ele>
        <time>2021-05-20T18:33:43Z</time>
      </trkpt>
      <trkpt lat="46.54254" lon="-0.78122">
        <ele>78</ele>
        <time>2021-05-20T18:33:49Z</time>
      </trkpt>
      <trkpt lat="46.54247" lon="-0.78115">
        <ele>81</ele>
        <time>2021-05-20T18:33:53Z</time>
      </trkpt>
      <trkpt lat="46.54242" lon="-0.78098">
        <ele>82</ele>
        <time>2021-05-20T18:33:59Z</time>
      </trkpt>
      <trkpt lat="46.54224" lon="-0.78104">
        <ele>86</ele>
        <time>2021-05-20T18:34:08Z</time>
      </trkpt>
      <trkpt lat="46.54195" lon="-0.78109">
        <ele>93</ele>
        <time>2021-05-20T18:34:23Z</time>
      </trkpt>
      <trkpt lat="46.54123" lon="-0.78116">
        <ele>101</ele>
        <time>2021-05-20T18:34:59Z</time>
      </trkpt>
      <trkpt lat="46.54084" lon="-0.78126">
        <ele>102</ele>
        <time>2021-05-20T18:35:19Z</time>
      </trkpt>
      <trkpt lat="46.5408" lon="-0.78077">
        <ele>101</ele>
        <time>2021-05-20T18:35:36Z</time>
      </trkpt>
      <trkpt lat="46.54079" lon="-0.78012">
        <ele>96</ele>
        <time>2021-05-20T18:35:58Z</time>
      </trkpt>
      <trkpt lat="46.54082" lon="-0.77877">
        <ele>86</ele>
        <time>2021-05-20T18:36:45Z</time>
      </trkpt>
      <trkpt lat="46.54091" lon="-0.77818">
        <ele>80</ele>
        <time>2021-05-20T18:37:06Z</time>
      </trkpt>
      <trkpt lat="46.54111" lon="-0.77779">
        <ele>73</ele>
        <time>2021-05-20T18:37:22Z</time>
      </trkpt>
      <trkpt lat="46.54129" lon="-0.77795">
        <ele>74</ele>
        <time>2021-05-20T18:37:33Z</time>
      </trkpt>
      <trkpt lat="46.54202" lon="-0.77815">
        <ele>71</ele>
        <time>2021-05-20T18:38:10Z</time>
      </trkpt>
      <trkpt lat="46.54232" lon="-0.77832">
        <ele>71</ele>
        <time>2021-05-20T18:38:26Z</time>
      </trkpt>
      <trkpt lat="46.54254" lon="-0.77866">
        <ele>70</ele>
        <time>2021-05-20T18:38:42Z</time>
      </trkpt>
      <trkpt lat="46.5427" lon="-0.77905">
        <ele>67</ele>
        <time>2021-05-20T18:38:58Z</time>
      </trkpt>
      <trkpt lat="46.5428" lon="-0.77958">
        <ele>66</ele>
        <time>2021-05-20T18:39:17Z</time>
      </trkpt>
      <trkpt lat="46.54299" lon="-0.78008">
        <ele>60</ele>
        <time>2021-05-20T18:39:37Z</time>
      </trkpt>
      <trkpt lat="46.54296" lon="-0.78063">
        <ele>60</ele>
        <time>2021-05-20T18:39:55Z</time>
      </trkpt>
      <trkpt lat="46.54276" lon="-0.78074">
        <ele>69</ele>
        <time>2021-05-20T18:40:06Z</time>
      </trkpt>
      <trkpt lat="46.54262" lon="-0.78092">
        <ele>75</ele>
        <time>2021-05-20T18:40:16Z</time>
      </trkpt>
      <trkpt lat="46.5426" lon="-0.7807">
        <ele>76</ele>
        <time>2021-05-20T18:40:23Z</time>
      </trkpt>
      <trkpt lat="46.54253" lon="-0.78062">
        <ele>78</ele>
        <time>2021-05-20T18:40:28Z</time>
      </trkpt>
      <trkpt lat="46.54243" lon="-0.78076">
        <ele>81</ele>
        <time>2021-05-20T18:40:35Z</time>
      </trkpt>
      <trkpt lat="46.54247" lon="-0.78121">
        <ele>81</ele>
        <time>2021-05-20T18:40:50Z</time>
      </trkpt>
      <trkpt lat="46.54259" lon="-0.78121">
        <ele>76</ele>
        <time>2021-05-20T18:40:56Z</time>
      </trkpt>
      <trkpt lat="46.54264" lon="-0.78088">
        <ele>74</ele>
        <time>2021-05-20T18:41:08Z</time>
      </trkpt>
      <trkpt lat="46.54278" lon="-0.78073">
        <ele>68</ele>
        <time>2021-05-20T18:41:17Z</time>
      </trkpt>
      <trkpt lat="46.54286" lon="-0.78084">
        <ele>64</ele>
        <time>2021-05-20T18:41:22Z</time>
      </trkpt>
      <trkpt lat="46.54292" lon="-0.78102">
        <ele>62</ele>
        <time>2021-05-20T18:41:29Z</time>
      </trkpt>
      <trkpt lat="46.54328" lon="-0.78119">
        <ele>46</ele>
        <time>2021-05-20T18:41:48Z</time>
      </trkpt>
      <trkpt lat="46.54342" lon="-0.78122">
        <ele>45</ele>
        <time>2021-05-20T18:41:55Z</time>
      </trkpt>
      <trkpt lat="46.54372" lon="-0.78123">
        <ele>48</ele>
        <time>2021-05-20T18:42:10Z</time>
      </trkpt>
      <trkpt lat="46.544" lon="-0.7812">
        <ele>52</ele>
        <time>2021-05-20T18:42:24Z</time>
      </trkpt>
      <trkpt lat="46.54441" lon="-0.7819">
        <ele>54</ele>
        <time>2021-05-20T18:42:56Z</time>
      </trkpt>
      <trkpt lat="46.54478" lon="-0.78208">
        <ele>55</ele>
        <time>2021-05-20T18:43:15Z</time>
      </trkpt>
      <trkpt lat="46.54517" lon="-0.78212">
        <ele>54</ele>
        <time>2021-05-20T18:43:35Z</time>
      </trkpt>
      <trkpt lat="46.54568" lon="-0.78178">
        <ele>54</ele>
        <time>2021-05-20T18:44:03Z</time>
      </trkpt>
      <trkpt lat="46.54552" lon="-0.78086">
        <ele>67</ele>
        <time>2021-05-20T18:44:36Z</time>
      </trkpt>
      <trkpt lat="46.54547" lon="-0.77996">
        <ele>77</ele>
        <time>2021-05-20T18:45:07Z</time>
      </trkpt>
      <trkpt lat="46.54555" lon="-0.77931">
        <ele>78</ele>
        <time>2021-05-20T18:45:29Z</time>
      </trkpt>
      <trkpt lat="46.54572" lon="-0.77852">
        <ele>81</ele>
        <time>2021-05-20T18:45:58Z</time>
      </trkpt>
      <trkpt lat="46.54609" lon="-0.77766">
        <ele>84</ele>
        <time>2021-05-20T18:46:33Z</time>
      </trkpt>
      <trkpt lat="46.54633" lon="-0.77698">
        <ele>86</ele>
        <time>2021-05-20T18:46:59Z</time>
      </trkpt>
      <trkpt lat="46.54647" lon="-0.77603">
        <ele>88</ele>
        <time>2021-05-20T18:47:32Z</time>
      </trkpt>
      <trkpt lat="46.54646" lon="-0.77498">
        <ele>89</ele>
        <time>2021-05-20T18:48:09Z</time>
      </trkpt>
      <trkpt lat="46.54637" lon="-0.77336">
        <ele>91</ele>
        <time>2021-05-20T18:49:05Z</time>
      </trkpt>
      <trkpt lat="46.54582" lon="-0.77234">
        <ele>88</ele>
        <time>2021-05-20T18:49:49Z</time>
      </trkpt>
      <trkpt lat="46.5448" lon="-0.77239">
        <ele>90</ele>
        <time>2021-05-20T18:50:40Z</time>
      </trkpt>
      <trkpt lat="46.54193" lon="-0.77239">
        <ele>99</ele>
        <time>2021-05-20T18:53:04Z</time>
      </trkpt>
      <trkpt lat="46.53988" lon="-0.77242">
        <ele>86</ele>
        <time>2021-05-20T18:54:46Z</time>
      </trkpt>
      <trkpt lat="46.53782" lon="-0.77239">
        <ele>82</ele>
        <time>2021-05-20T18:56:30Z</time>
      </trkpt>
      <trkpt lat="46.53665" lon="-0.77242">
        <ele>83</ele>
        <time>2021-05-20T18:57:28Z</time>
      </trkpt>
      <trkpt lat="46.53641" lon="-0.77255">
        <ele>83</ele>
        <time>2021-05-20T18:57:41Z</time>
      </trkpt>
      <trkpt lat="46.53624" lon="-0.77282">
        <ele>80</ele>
        <time>2021-05-20T18:57:53Z</time>
      </trkpt>
      <trkpt lat="46.53633" lon="-0.77321">
        <ele>76</ele>
        <time>2021-05-20T18:58:08Z</time>
      </trkpt>
      <trkpt lat="46.53613" lon="-0.77349">
        <ele>74</ele>
        <time>2021-05-20T18:58:22Z</time>
      </trkpt>
      <trkpt lat="46.53585" lon="-0.77359">
        <ele>73</ele>
        <time>2021-05-20T18:58:36Z</time>
      </trkpt>
      <trkpt lat="46.53571" lon="-0.77385">
        <ele>71</ele>
        <time>2021-05-20T18:58:47Z</time>
      </trkpt>
      <trkpt lat="46.5357" lon="-0.77417">
        <ele>68</ele>
        <time>2021-05-20T18:58:58Z</time>
      </trkpt>
      <trkpt lat="46.53564" lon="-0.77448">
        <ele>64</ele>
        <time>2021-05-20T18:59:09Z</time>
      </trkpt>
      <trkpt lat="46.53545" lon="-0.77469">
        <ele>61</ele>
        <time>2021-05-20T18:59:21Z</time>
      </trkpt>
      <trkpt lat="46.53522" lon="-0.77481">
        <ele>57</ele>
        <time>2021-05-20T18:59:34Z</time>
      </trkpt>
      <trkpt lat="46.53499" lon="-0.77472">
        <ele>57</ele>
        <time>2021-05-20T18:59:46Z</time>
      </trkpt>
      <trkpt lat="46.53457" lon="-0.77436">
        <ele>55</ele>
        <time>2021-05-20T19:00:10Z</time>
      </trkpt>
      <trkpt lat="46.53426" lon="-0.7739">
        <ele>53</ele>
        <time>2021-05-20T19:00:32Z</time>
      </trkpt>
      <trkpt lat="46.53403" lon="-0.77366">
        <ele>53</ele>
        <time>2021-05-20T19:00:46Z</time>
      </trkpt>
      <trkpt lat="46.53382" lon="-0.77357">
        <ele>52</ele>
        <time>2021-05-20T19:00:57Z</time>
      </trkpt>
      <trkpt lat="46.53351" lon="-0.77323">
        <ele>49</ele>
        <time>2021-05-20T19:01:17Z</time>
      </trkpt>
      <trkpt lat="46.53322" lon="-0.77244">
        <ele>61</ele>
        <time>2021-05-20T19:01:48Z</time>
      </trkpt>
      <trkpt lat="46.53303" lon="-0.77217">
        <ele>67</ele>
        <time>2021-05-20T19:02:01Z</time>
      </trkpt>
      <trkpt lat="46.53272" lon="-0.77235">
        <ele>57</ele>
        <time>2021-05-20T19:02:18Z</time>
      </trkpt>
      <trkpt lat="46.53257" lon="-0.77214">
        <ele>60</ele>
        <time>2021-05-20T19:02:28Z</time>
      </trkpt>
      <trkpt lat="46.53228" lon="-0.77205">
        <ele>60</ele>
        <time>2021-05-20T19:02:43Z</time>
      </trkpt>
      <trkpt lat="46.53203" lon="-0.77217">
        <ele>56</ele>
        <time>2021-05-20T19:02:56Z</time>
      </trkpt>
      <trkpt lat="46.53155" lon="-0.77196">
        <ele>57</ele>
        <time>2021-05-20T19:03:21Z</time>
      </trkpt>
      <trkpt lat="46.53071" lon="-0.77205">
        <ele>51</ele>
        <time>2021-05-20T19:04:03Z</time>
      </trkpt>
      <trkpt lat="46.53048" lon="-0.77181">
        <ele>51</ele>
        <time>2021-05-20T19:04:17Z</time>
      </trkpt>
      <trkpt lat="46.53042" lon="-0.77111">
        <ele>53</ele>
        <time>2021-05-20T19:04:42Z</time>
      </trkpt>
      <trkpt lat="46.53023" lon="-0.77087">
        <ele>51</ele>
        <time>2021-05-20T19:04:54Z</time>
      </trkpt>
      <trkpt lat="46.53019" lon="-0.77002">
        <ele>49</ele>
        <time>2021-05-20T19:05:24Z</time>
      </trkpt>
      <trkpt lat="46.53013" lon="-0.76944">
        <ele>48</ele>
        <time>2021-05-20T19:05:44Z</time>
      </trkpt>
      <trkpt lat="46.53015" lon="-0.76905">
        <ele>49</ele>
        <time>2021-05-20T19:05:57Z</time>
      </trkpt>
      <trkpt lat="46.53007" lon="-0.76875">
        <ele>49</ele>
        <time>2021-05-20T19:06:08Z</time>
      </trkpt>
      <trkpt lat="46.53" lon="-0.76834">
        <ele>50</ele>
        <time>2021-05-20T19:06:23Z</time>
      </trkpt>
      <trkpt lat="46.52973" lon="-0.7678">
        <ele>57</ele>
        <time>2021-05-20T19:06:46Z</time>
      </trkpt>
      <trkpt lat="46.52948" lon="-0.76759">
        <ele>57</ele>
        <time>2021-05-20T19:07:00Z</time>
      </trkpt>
      <trkpt lat="46.52911" lon="-0.76733">
        <ele>59</ele>
        <time>2021-05-20T19:07:21Z</time>
      </trkpt>
      <trkpt lat="46.52868" lon="-0.7674">
        <ele>58</ele>
        <time>2021-05-20T19:07:42Z</time>
      </trkpt>
      <trkpt lat="46.52823" lon="-0.76778">
        <ele>53</ele>
        <time>2021-05-20T19:08:09Z</time>
      </trkpt>
      <trkpt lat="46.52781" lon="-0.76821">
        <ele>49</ele>
        <time>2021-05-20T19:08:34Z</time>
      </trkpt>
      <trkpt lat="46.52733" lon="-0.76834">
        <ele>50</ele>
        <time>2021-05-20T19:08:59Z</time>
      </trkpt>
      <trkpt lat="46.52694" lon="-0.76823">
        <ele>48</ele>
        <time>2021-05-20T19:09:19Z</time>
      </trkpt>
      <trkpt lat="46.52678" lon="-0.76774">
        <ele>47</ele>
        <time>2021-05-20T19:09:37Z</time>
      </trkpt>
      <trkpt lat="46.52685" lon="-0.7674">
        <ele>48</ele>
        <time>2021-05-20T19:09:49Z</time>
      </trkpt>
      <trkpt lat="46.52736" lon="-0.76709">
        <ele>51</ele>
        <time>2021-05-20T19:10:17Z</time>
      </trkpt>
      <trkpt lat="46.52697" lon="-0.76744">
        <ele>49</ele>
        <time>2021-05-20T19:10:40Z</time>
      </trkpt>
      <trkpt lat="46.52699" lon="-0.76789">
        <ele>49</ele>
        <time>2021-05-20T19:10:56Z</time>
      </trkpt>
      <trkpt lat="46.52755" lon="-0.76806">
        <ele>52</ele>
        <time>2021-05-20T19:11:24Z</time>
      </trkpt>
      <trkpt lat="46.52795" lon="-0.76772">
        <ele>53</ele>
        <time>2021-05-20T19:11:47Z</time>
      </trkpt>
      <trkpt lat="46.52817" lon="-0.76733">
        <ele>57</ele>
        <time>2021-05-20T19:12:05Z</time>
      </trkpt>
      <trkpt lat="46.52866" lon="-0.76714">
        <ele>61</ele>
        <time>2021-05-20T19:12:30Z</time>
      </trkpt>
      <trkpt lat="46.52917" lon="-0.76699">
        <ele>68</ele>
        <time>2021-05-20T19:12:56Z</time>
      </trkpt>
      <trkpt lat="46.52941" lon="-0.76667">
        <ele>79</ele>
        <time>2021-05-20T19:13:12Z</time>
      </trkpt>
      <trkpt lat="46.52945" lon="-0.76628">
        <ele>80</ele>
        <time>2021-05-20T19:13:26Z</time>
      </trkpt>
      <trkpt lat="46.52964" lon="-0.76598">
        <ele>85</ele>
        <time>2021-05-20T19:13:40Z</time>
      </trkpt>
      <trkpt lat="46.53004" lon="-0.76549">
        <ele>93</ele>
        <time>2021-05-20T19:14:06Z</time>
      </trkpt>
      <trkpt lat="46.53041" lon="-0.76604">
        <ele>91</ele>
        <time>2021-05-20T19:14:33Z</time>
      </trkpt>
      <trkpt lat="46.5309" lon="-0.76641">
        <ele>89</ele>
        <time>2021-05-20T19:15:00Z</time>
      </trkpt>
      <trkpt lat="46.53133" lon="-0.76679">
        <ele>86</ele>
        <time>2021-05-20T19:15:26Z</time>
      </trkpt>
      <trkpt lat="46.53184" lon="-0.76595">
        <ele>88</ele>
        <time>2021-05-20T19:16:04Z</time>
      </trkpt>
      <trkpt lat="46.53208" lon="-0.76532">
        <ele>89</ele>
        <time>2021-05-20T19:16:29Z</time>
      </trkpt>
      <trkpt lat="46.53314" lon="-0.76337">
        <ele>82</ele>
        <time>2021-05-20T19:17:54Z</time>
      </trkpt>
      <trkpt lat="46.53245" lon="-0.76254">
        <ele>65</ele>
        <time>2021-05-20T19:18:39Z</time>
      </trkpt>
      <trkpt lat="46.5321" lon="-0.762">
        <ele>57</ele>
        <time>2021-05-20T19:19:05Z</time>
      </trkpt>
      <trkpt lat="46.53255" lon="-0.76189">
        <ele>54</ele>
        <time>2021-05-20T19:19:28Z</time>
      </trkpt>
      <trkpt lat="46.53285" lon="-0.76135">
        <ele>53</ele>
        <time>2021-05-20T19:19:52Z</time>
      </trkpt>
      <trkpt lat="46.53337" lon="-0.76099">
        <ele>52</ele>
        <time>2021-05-20T19:20:20Z</time>
      </trkpt>
      <trkpt lat="46.53379" lon="-0.76059">
        <ele>50</ele>
        <time>2021-05-20T19:20:46Z</time>
      </trkpt>
      <trkpt lat="46.53448" lon="-0.76099">
        <ele>51</ele>
        <time>2021-05-20T19:21:23Z</time>
      </trkpt>
      <trkpt lat="46.53515" lon="-0.76131">
        <ele>50</ele>
        <time>2021-05-20T19:21:58Z</time>
      </trkpt>
      <trkpt lat="46.5357" lon="-0.76099">
        <ele>48</ele>
        <time>2021-05-20T19:22:28Z</time>
      </trkpt>
      <trkpt lat="46.53602" lon="-0.76131">
        <ele>52</ele>
        <time>2021-05-20T19:22:47Z</time>
      </trkpt>
      <trkpt lat="46.53667" lon="-0.76286">
        <ele>73</ele>
        <time>2021-05-20T19:23:50Z</time>
      </trkpt>
      <trkpt lat="46.53691" lon="-0.76253">
        <ele>74</ele>
        <time>2021-05-20T19:24:06Z</time>
      </trkpt>
      <trkpt lat="46.53743" lon="-0.7615">
        <ele>79</ele>
        <time>2021-05-20T19:24:50Z</time>
      </trkpt>
      <trkpt lat="46.53824" lon="-0.76001">
        <ele>64</ele>
        <time>2021-05-20T19:25:55Z</time>
      </trkpt>
      <trkpt lat="46.53807" lon="-0.75959">
        <ele>61</ele>
        <time>2021-05-20T19:26:12Z</time>
      </trkpt>
      <trkpt lat="46.53788" lon="-0.75945">
        <ele>60</ele>
        <time>2021-05-20T19:26:23Z</time>
      </trkpt>
      <trkpt lat="46.53767" lon="-0.75913">
        <ele>57</ele>
        <time>2021-05-20T19:26:38Z</time>
      </trkpt>
      <trkpt lat="46.53769" lon="-0.75883">
        <ele>59</ele>
        <time>2021-05-20T19:26:48Z</time>
      </trkpt>
      <trkpt lat="46.53791" lon="-0.75869">
        <ele>60</ele>
        <time>2021-05-20T19:27:00Z</time>
      </trkpt>
      <trkpt lat="46.53815" lon="-0.7588">
        <ele>60</ele>
        <time>2021-05-20T19:27:13Z</time>
      </trkpt>
      <trkpt lat="46.53848" lon="-0.75854">
        <ele>60</ele>
        <time>2021-05-20T19:27:32Z</time>
      </trkpt>
      <trkpt lat="46.53932" lon="-0.75839">
        <ele>62</ele>
        <time>2021-05-20T19:28:14Z</time>
      </trkpt>
      <trkpt lat="46.53968" lon="-0.75829">
        <ele>63</ele>
        <time>2021-05-20T19:28:33Z</time>
      </trkpt>
      <trkpt lat="46.54011" lon="-0.75835">
        <ele>65</ele>
        <time>2021-05-20T19:28:54Z</time>
      </trkpt>
      <trkpt lat="46.54008" lon="-0.75809">
        <ele>65</ele>
        <time>2021-05-20T19:29:03Z</time>
      </trkpt>
      <trkpt lat="46.53985" lon="-0.75797">
        <ele>65</ele>
        <time>2021-05-20T19:29:15Z</time>
      </trkpt>
      <trkpt lat="46.53973" lon="-0.75728">
        <ele>70</ele>
        <time>2021-05-20T19:29:40Z</time>
      </trkpt>
      <trkpt lat="46.5396" lon="-0.75704">
        <ele>74</ele>
        <time>2021-05-20T19:29:50Z</time>
      </trkpt>
      <trkpt lat="46.5395" lon="-0.75662">
        <ele>79</ele>
        <time>2021-05-20T19:30:06Z</time>
      </trkpt>
      <trkpt lat="46.53943" lon="-0.75615">
        <ele>82</ele>
        <time>2021-05-20T19:30:22Z</time>
      </trkpt>
      <trkpt lat="46.53948" lon="-0.75586">
        <ele>83</ele>
        <time>2021-05-20T19:30:33Z</time>
      </trkpt>
      <trkpt lat="46.53938" lon="-0.75546">
        <ele>85</ele>
        <time>2021-05-20T19:30:47Z</time>
      </trkpt>
      <trkpt lat="46.53925" lon="-0.75511">
        <ele>87</ele>
        <time>2021-05-20T19:31:01Z</time>
      </trkpt>
      <trkpt lat="46.53896" lon="-0.75472">
        <ele>88</ele>
        <time>2021-05-20T19:31:21Z</time>
      </trkpt>
      <trkpt lat="46.53859" lon="-0.75465">
        <ele>88</ele>
        <time>2021-05-20T19:31:39Z</time>
      </trkpt>
      <trkpt lat="46.53845" lon="-0.75531">
        <ele>86</ele>
        <time>2021-05-20T19:32:03Z</time>
      </trkpt>
      <trkpt lat="46.53757" lon="-0.75498">
        <ele>83</ele>
        <time>2021-05-20T19:32:49Z</time>
      </trkpt>
      <trkpt lat="46.53714" lon="-0.75473">
        <ele>85</ele>
        <time>2021-05-20T19:33:12Z</time>
      </trkpt>
      <trkpt lat="46.53655" lon="-0.75457">
        <ele>86</ele>
        <time>2021-05-20T19:33:42Z</time>
      </trkpt>
      <trkpt lat="46.5363" lon="-0.75466">
        <ele>85</ele>
        <time>2021-05-20T19:33:55Z</time>
      </trkpt>
      <trkpt lat="46.53606" lon="-0.75414">
        <ele>86</ele>
        <time>2021-05-20T19:34:16Z</time>
      </trkpt>
      <trkpt lat="46.53546" lon="-0.75426">
        <ele>88</ele>
        <time>2021-05-20T19:34:47Z</time>
      </trkpt>
      <trkpt lat="46.53513" lon="-0.75424">
        <ele>91</ele>
        <time>2021-05-20T19:35:03Z</time>
      </trkpt>
      <trkpt lat="46.53495" lon="-0.75429">
        <ele>92</ele>
        <time>2021-05-20T19:35:12Z</time>
      </trkpt>
      <trkpt lat="46.53406" lon="-0.75373">
        <ele>98</ele>
        <time>2021-05-20T19:36:01Z</time>
      </trkpt>
      <trkpt lat="46.5329" lon="-0.75544">
        <ele>98</ele>
        <time>2021-05-20T19:37:24Z</time>
      </trkpt>
      <trkpt lat="46.53171" lon="-0.757">
        <ele>84</ele>
        <time>2021-05-20T19:38:44Z</time>
      </trkpt>
      <trkpt lat="46.53007" lon="-0.75651">
        <ele>52</ele>
        <time>2021-05-20T19:40:08Z</time>
      </trkpt>
      <trkpt lat="46.52962" lon="-0.75643">
        <ele>47</ele>
        <time>2021-05-20T19:40:30Z</time>
      </trkpt>
      <trkpt lat="46.52969" lon="-0.75452">
        <ele>52</ele>
        <time>2021-05-20T19:41:36Z</time>
      </trkpt>
      <trkpt lat="46.52965" lon="-0.75378">
        <ele>54</ele>
        <time>2021-05-20T19:42:02Z</time>
      </trkpt>
      <trkpt lat="46.52946" lon="-0.75304">
        <ele>59</ele>
        <time>2021-05-20T19:42:29Z</time>
      </trkpt>
      <trkpt lat="46.52962" lon="-0.75296">
        <ele>64</ele>
        <time>2021-05-20T19:42:37Z</time>
      </trkpt>
      <trkpt lat="46.52991" lon="-0.7534">
        <ele>64</ele>
        <time>2021-05-20T19:42:58Z</time>
      </trkpt>
      <trkpt lat="46.53076" lon="-0.75342">
        <ele>86</ele>
        <time>2021-05-20T19:43:41Z</time>
      </trkpt>
      <trkpt lat="46.53183" lon="-0.75365">
        <ele>98</ele>
        <time>2021-05-20T19:44:35Z</time>
      </trkpt>
      <trkpt lat="46.53137" lon="-0.75263">
        <ele>101</ele>
        <time>2021-05-20T19:45:17Z</time>
      </trkpt>
      <trkpt lat="46.53065" lon="-0.75113">
        <ele>98</ele>
        <time>2021-05-20T19:46:20Z</time>
      </trkpt>
      <trkpt lat="46.5303" lon="-0.75125">
        <ele>94</ele>
        <time>2021-05-20T19:46:38Z</time>
      </trkpt>
      <trkpt lat="46.52984" lon="-0.75169">
        <ele>87</ele>
        <time>2021-05-20T19:47:05Z</time>
      </trkpt>
      <trkpt lat="46.52962" lon="-0.75217">
        <ele>77</ele>
        <time>2021-05-20T19:47:25Z</time>
      </trkpt>
      <trkpt lat="46.52927" lon="-0.75217">
        <ele>71</ele>
        <time>2021-05-20T19:47:43Z</time>
      </trkpt>
      <trkpt lat="46.52914" lon="-0.75268">
        <ele>59</ele>
        <time>2021-05-20T19:48:02Z</time>
      </trkpt>
      <trkpt lat="46.52856" lon="-0.75227">
        <ele>59</ele>
        <time>2021-05-20T19:48:34Z</time>
      </trkpt>
      <trkpt lat="46.5277" lon="-0.7522">
        <ele>60</ele>
        <time>2021-05-20T19:49:17Z</time>
      </trkpt>
      <trkpt lat="46.52688" lon="-0.75256">
        <ele>63</ele>
        <time>2021-05-20T19:50:00Z</time>
      </trkpt>
      <trkpt lat="46.52626" lon="-0.7535">
        <ele>52</ele>
        <time>2021-05-20T19:50:45Z</time>
      </trkpt>
      <trkpt lat="46.52586" lon="-0.75444">
        <ele>47</ele>
        <time>2021-05-20T19:51:23Z</time>
      </trkpt>
      <trkpt lat="46.52539" lon="-0.75498">
        <ele>41</ele>
        <time>2021-05-20T19:51:53Z</time>
      </trkpt>
      <trkpt lat="46.52524" lon="-0.7546">
        <ele>44</ele>
        <time>2021-05-20T19:52:08Z</time>
      </trkpt>
      <trkpt lat="46.52517" lon="-0.75378">
        <ele>47</ele>
        <time>2021-05-20T19:52:36Z</time>
      </trkpt>
      <trkpt lat="46.52489" lon="-0.75184">
        <ele>51</ele>
        <time>2021-05-20T19:53:44Z</time>
      </trkpt>
      <trkpt lat="46.52454" lon="-0.74995">
        <ele>51</ele>
        <time>2021-05-20T19:54:52Z</time>
      </trkpt>
      <trkpt lat="46.52474" lon="-0.74906">
        <ele>52</ele>
        <time>2021-05-20T19:55:24Z</time>
      </trkpt>
      <trkpt lat="46.52463" lon="-0.74908">
        <ele>51</ele>
        <time>2021-05-20T19:55:30Z</time>
      </trkpt>
      <trkpt lat="46.52424" lon="-0.74944">
        <ele>45</ele>
        <time>2021-05-20T19:55:53Z</time>
      </trkpt>
      <trkpt lat="46.5234" lon="-0.75008">
        <ele>40</ele>
        <time>2021-05-20T19:56:40Z</time>
      </trkpt>
      <trkpt lat="46.52284" lon="-0.75064">
        <ele>40</ele>
        <time>2021-05-20T19:57:14Z</time>
      </trkpt>
      <trkpt lat="46.52282" lon="-0.7512">
        <ele>44</ele>
        <time>2021-05-20T19:57:34Z</time>
      </trkpt>
      <trkpt lat="46.52289" lon="-0.75184">
        <ele>49</ele>
        <time>2021-05-20T19:57:56Z</time>
      </trkpt>
      <trkpt lat="46.52286" lon="-0.75225">
        <ele>53</ele>
        <time>2021-05-20T19:58:10Z</time>
      </trkpt>
      <trkpt lat="46.52294" lon="-0.75258">
        <ele>56</ele>
        <time>2021-05-20T19:58:22Z</time>
      </trkpt>
      <trkpt lat="46.52261" lon="-0.75296">
        <ele>65</ele>
        <time>2021-05-20T19:58:43Z</time>
      </trkpt>
      <trkpt lat="46.52238" lon="-0.75327">
        <ele>69</ele>
        <time>2021-05-20T19:58:59Z</time>
      </trkpt>
      <trkpt lat="46.5224" lon="-0.75381">
        <ele>75</ele>
        <time>2021-05-20T19:59:17Z</time>
      </trkpt>
      <trkpt lat="46.52254" lon="-0.75442">
        <ele>80</ele>
        <time>2021-05-20T19:59:40Z</time>
      </trkpt>
      <trkpt lat="46.52291" lon="-0.75567">
        <ele>84</ele>
        <time>2021-05-20T20:00:26Z</time>
      </trkpt>
      <trkpt lat="46.52307" lon="-0.75603">
        <ele>85</ele>
        <time>2021-05-20T20:00:41Z</time>
      </trkpt>
      <trkpt lat="46.52303" lon="-0.75671">
        <ele>87</ele>
        <time>2021-05-20T20:01:05Z</time>
      </trkpt>
    </trkseg>
  </trk>
</gpx>